Mt Champion Express — A8QN4 — position and weather

sailwx.info

Track history (hours):
 
Tides and Currents Weather Stations Pressure Air Temp Water Temp Dewpoint Dewpoint Depression Visibility Wind Speed Wind Dir Waves Ship Positions

Mt Champion Express

Last reported at 2015-Apr-06 22:14 UTC. Time now 2015-Apr-18 16:45 UTC.
Position N 48°33' W 126°08'.
Warning: this ship's position is 11 days out of date.

Length 192 m; draft 7 m.

Type: Tanker. MMSI: 636013968.

Date/timePositionNaut miles runAvg speedWind from/ knotsBaromVisibWave heightAir tempDewpointWater temp
2015-Apr-06 22:14N 48°33' W 126°08'811.7
2015-Apr-06 21:31N 48°33' W 125°56'4111.7
2015-Apr-06 18:04N 48°31' W 124°55'612.4
2015-Apr-06 17:33N 48°31' W 124°45'1313.0
2015-Apr-06 16:33N 48°26' W 124°27'1312.7
2015-Apr-06 15:33N 48°21' W 124°09'1312.3
2015-Apr-06 14:30N 48°17' W 123°51'1111.8
2015-Apr-06 13:33N 48°15' W 123°34'9 9.3
2015-Apr-06 12:34N 48°22' W 123°25'8 8.0
2015-Apr-06 11:34N 48°24' W 123°13'10 9.8
2015-Apr-06 10:33N 48°34' W 123°13'9 8.9
2015-Apr-06 09:33N 48°43' W 123°13'10 9.6
2015-Apr-06 08:28N 48°49' W 123°01'1111.7
2015-Apr-06 07:33N 48°56' W 123°13'1110.9
2015-Apr-06 06:33N 49°05' W 123°23'1111.5
2015-Apr-06 05:33N 49°16' W 123°20'9 8.6
2015-Apr-06 04:33N 49°18' W 123°07'2 2.2
2015-Apr-06 03:31N 49°17' W 123°04'0 0.0
2015-Apr-06 02:31N 49°17' W 123°04'0 0.0
2015-Apr-06 01:31N 49°17' W 123°04'0 0.0
2015-Apr-06 00:31N 49°17' W 123°04'0 0.0
2015-Apr-05 23:31N 49°17' W 123°04'0 0.0
2015-Apr-05 22:31N 49°17' W 123°04'0 0.0
2015-Apr-05 21:31N 49°17' W 123°04'0 0.0
2015-Apr-05 20:31N 49°17' W 123°04'0 0.0
2015-Apr-05 19:31N 49°17' W 123°04'0 0.0
2015-Apr-05 18:31N 49°17' W 123°04'0 0.0
2015-Apr-05 17:31N 49°17' W 123°04'0 0.0
2015-Apr-05 16:31N 49°17' W 123°04'0 0.0
2015-Apr-05 15:31N 49°17' W 123°04'0 0.0
2015-Apr-05 14:31N 49°17' W 123°04'0 0.0
2015-Apr-05 13:31N 49°17' W 123°04'0 0.0
2015-Apr-05 12:31N 49°17' W 123°04'0 0.0
2015-Apr-05 11:31N 49°17' W 123°04'0 0.0
2015-Apr-05 10:31N 49°17' W 123°04'0 0.0
2015-Apr-05 09:31N 49°17' W 123°04'0 0.0
2015-Apr-05 08:31N 49°17' W 123°04'0 0.0
2015-Apr-05 07:31N 49°17' W 123°04'0 0.0
2015-Apr-05 06:31N 49°17' W 123°04'0 0.0
2015-Apr-05 05:31N 49°17' W 123°04'0 0.0
2015-Apr-05 04:31N 49°17' W 123°04'0 0.0
2015-Apr-05 03:31N 49°17' W 123°04'0 0.0
2015-Apr-05 02:31N 49°17' W 123°04'0 0.1
2015-Apr-05 01:31N 49°17' W 123°04'0 0.0
2015-Apr-05 00:31N 49°17' W 123°04'0 0.0
2015-Apr-04 23:31N 49°17' W 123°04'0 0.0
2015-Apr-04 22:31N 49°17' W 123°04'0 0.0
2015-Apr-04 21:31N 49°17' W 123°04'0 0.0
2015-Apr-04 20:31N 49°17' W 123°04'0 0.0
2015-Apr-04 19:31N 49°17' W 123°04'0 0.0
2015-Apr-04 18:31N 49°17' W 123°04'0 0.0
2015-Apr-04 17:31N 49°17' W 123°04'0 0.0
2015-Apr-04 16:31N 49°17' W 123°04'0 0.0
2015-Apr-04 15:31N 49°17' W 123°04'0 0.0
2015-Apr-04 14:31N 49°17' W 123°04'0 0.0
2015-Apr-04 13:31N 49°17' W 123°04'0 0.0
2015-Apr-04 12:31N 49°17' W 123°04'0 0.0
2015-Apr-04 11:31N 49°17' W 123°04'0 0.0
2015-Apr-04 10:33N 49°17' W 123°04'0 0.0
2015-Apr-04 09:33N 49°17' W 123°04'0 0.0
2015-Apr-04 08:33N 49°17' W 123°04'0 0.0
2015-Apr-04 07:33N 49°17' W 123°04'0 0.0
2015-Apr-04 06:33N 49°17' W 123°04'0 0.0
2015-Apr-04 05:33N 49°17' W 123°04'0 0.0
2015-Apr-04 04:33N 49°17' W 123°04'0 0.0
2015-Apr-04 03:33N 49°17' W 123°04'0 0.0
2015-Apr-04 02:33N 49°17' W 123°04'0 0.0
2015-Apr-04 01:33N 49°17' W 123°04'0 0.0
2015-Apr-04 00:33N 49°17' W 123°04'0 0.0
2015-Apr-03 23:33N 49°17' W 123°04'0 0.0
2015-Apr-03 22:33N 49°17' W 123°04'0 0.0
2015-Apr-03 21:33N 49°17' W 123°04'0 0.0
2015-Apr-03 20:33N 49°17' W 123°04'0 0.0
2015-Apr-03 19:33N 49°17' W 123°04'0 0.0
2015-Apr-03 18:30N 49°17' W 123°04'0 0.0
2015-Apr-03 17:33N 49°17' W 123°04'0 0.0
2015-Apr-03 16:33N 49°17' W 123°04'0 0.0
2015-Apr-03 15:33N 49°17' W 123°04'0 0.0
2015-Apr-03 14:33N 49°17' W 123°04'0 0.0
2015-Apr-03 13:33N 49°17' W 123°04'0 0.0
2015-Apr-03 12:33N 49°17' W 123°04'0 0.0
2015-Apr-03 11:33N 49°17' W 123°04'0 0.0
2015-Apr-03 10:33N 49°17' W 123°04'0 0.0
2015-Apr-03 09:33N 49°17' W 123°04'0 0.0
2015-Apr-03 08:33N 49°17' W 123°04'0 0.0
2015-Apr-03 07:33N 49°17' W 123°04'0 0.0
2015-Apr-03 06:33N 49°17' W 123°04'0 0.0
2015-Apr-03 05:33N 49°17' W 123°04'0 0.0
2015-Apr-03 04:33N 49°17' W 123°04'0 0.0
2015-Apr-03 03:33N 49°17' W 123°04'0 0.0
2015-Apr-03 02:33N 49°17' W 123°04'0 0.0
2015-Apr-03 01:33N 49°17' W 123°04'0 0.0
2015-Apr-03 00:33N 49°17' W 123°04'0 0.0
2015-Apr-02 23:33N 49°17' W 123°04'0 0.0
2015-Apr-02 22:30N 49°17' W 123°04'0 0.0
2015-Apr-02 21:33N 49°17' W 123°04'0 0.0
2015-Apr-02 20:33N 49°17' W 123°04'0 0.0
2015-Apr-02 19:33N 49°17' W 123°04'0 0.0
2015-Apr-02 18:33N 49°17' W 123°04'0 0.0
2015-Apr-02 17:33N 49°17' W 123°04'0 0.0
2015-Apr-02 16:33N 49°17' W 123°04'0 0.0
2015-Apr-02 15:33N 49°17' W 123°04'0 0.0
2015-Apr-02 14:33N 49°17' W 123°04'0 0.0
2015-Apr-02 13:33N 49°17' W 123°04'0 0.0
2015-Apr-02 12:33N 49°17' W 123°04'0 0.0
2015-Apr-02 11:33N 49°17' W 123°04'0 0.0
2015-Apr-02 10:33N 49°17' W 123°04'0 0.0
2015-Apr-02 09:33N 49°17' W 123°04'0 0.0
2015-Apr-02 08:33N 49°17' W 123°04'0 0.0
2015-Apr-02 07:33N 49°17' W 123°04'0 0.0
2015-Apr-02 06:33N 49°17' W 123°04'0 0.0
2015-Apr-02 05:33N 49°17' W 123°04'0 0.0
2015-Apr-02 04:33N 49°17' W 123°04'0 0.0
2015-Apr-02 03:33N 49°17' W 123°04'0 0.0
2015-Apr-02 02:33N 49°17' W 123°04'0 0.0
2015-Apr-02 01:33N 49°17' W 123°04'0 0.0
2015-Apr-02 00:33N 49°17' W 123°04'0 0.0
2015-Apr-01 23:33N 49°17' W 123°04'0 0.0
2015-Apr-01 22:33N 49°17' W 123°04'1 1.2
2015-Apr-01 21:33N 49°18' W 123°06'6 5.2
2015-Apr-01 20:30N 49°18' W 123°14'0 0.0
2015-Apr-01 19:33N 49°18' W 123°14'0 0.2
2015-Apr-01 18:33N 49°18' W 123°14'0 0.1
2015-Apr-01 17:30N 49°18' W 123°14'0 0.1
2015-Apr-01 16:33N 49°18' W 123°14'0 0.0
2015-Apr-01 15:33N 49°18' W 123°14'0 0.0
2015-Apr-01 14:33N 49°18' W 123°14'0 0.0
2015-Apr-01 13:33N 49°18' W 123°14'0 0.0
2015-Apr-01 12:33N 49°18' W 123°14'0 0.0
2015-Apr-01 11:33N 49°18' W 123°14'0 0.1
2015-Apr-01 10:33N 49°18' W 123°14'0 0.0
2015-Apr-01 09:33N 49°18' W 123°14'0 0.0
2015-Apr-01 08:30N 49°18' W 123°14'0 0.1
2015-Apr-01 07:33N 49°18' W 123°14'0 0.0
2015-Apr-01 06:33N 49°18' W 123°14'0 0.0
2015-Apr-01 05:33N 49°18' W 123°14'0 0.0
2015-Apr-01 04:33N 49°18' W 123°14'0 0.0
2015-Apr-01 03:33N 49°18' W 123°14'0 0.0
2015-Apr-01 02:33N 49°18' W 123°14'0 0.0
2015-Apr-01 01:33N 49°18' W 123°14'0 0.1
2015-Apr-01 00:33N 49°18' W 123°14'0 0.1
2015-Mar-31 23:33N 49°18' W 123°14'1 1.0
2015-Mar-31 22:33N 49°18' W 123°13'6 5.7
2015-Mar-31 21:33N 49°17' W 123°04'0 0.1
2015-Mar-31 20:33N 49°17' W 123°04'0 0.0
2015-Mar-31 19:33N 49°17' W 123°04'0 0.0
2015-Mar-31 18:33N 49°17' W 123°04'0 0.0
2015-Mar-31 17:33N 49°17' W 123°04'0 0.0
2015-Mar-31 16:33N 49°17' W 123°04'0 0.0
2015-Mar-31 15:33N 49°17' W 123°04'0 0.0
2015-Mar-31 14:33N 49°17' W 123°04'0 0.0
2015-Mar-31 13:33N 49°17' W 123°04'0 0.0
2015-Mar-31 12:33N 49°17' W 123°04'0 0.0
2015-Mar-31 11:33N 49°17' W 123°04'0 0.0
2015-Mar-31 10:33N 49°17' W 123°04'0 0.0
2015-Mar-31 09:33N 49°17' W 123°04'0 0.0
2015-Mar-31 08:33N 49°17' W 123°04'0 0.0
2015-Mar-31 07:33N 49°17' W 123°04'0 0.0
2015-Mar-31 06:33N 49°17' W 123°04'0 0.0
2015-Mar-31 05:33N 49°17' W 123°04'0 0.0
2015-Mar-31 04:33N 49°17' W 123°04'0 0.0
2015-Mar-31 03:33N 49°17' W 123°04'0 0.0
2015-Mar-31 02:33N 49°17' W 123°04'0 0.0
2015-Mar-31 01:33N 49°17' W 123°04'0 0.0
2015-Mar-31 00:33N 49°17' W 123°04'0 0.0
2015-Mar-30 23:33N 49°17' W 123°04'0 0.0
2015-Mar-30 22:33N 49°17' W 123°04'0 0.0
2015-Mar-30 21:33N 49°17' W 123°04'0 0.0
2015-Mar-30 20:33N 49°17' W 123°04'0 0.0
2015-Mar-30 19:30N 49°17' W 123°04'0 0.0
2015-Mar-30 18:33N 49°17' W 123°04'0 0.0
2015-Mar-30 17:33N 49°17' W 123°04'0 0.0
2015-Mar-30 16:33N 49°17' W 123°04'0 0.0
2015-Mar-30 15:33N 49°17' W 123°04'0 0.0
2015-Mar-30 14:33N 49°17' W 123°04'0 0.0
2015-Mar-30 13:33N 49°17' W 123°04'0 0.0
2015-Mar-30 12:33N 49°17' W 123°04'0 0.0
2015-Mar-30 11:33N 49°17' W 123°04'0 0.0
2015-Mar-30 10:33N 49°17' W 123°04'0 0.0
2015-Mar-30 09:33N 49°17' W 123°04'0 0.0
2015-Mar-30 08:33N 49°17' W 123°04'0 0.0
2015-Mar-30 07:30N 49°17' W 123°04'0 0.0
2015-Mar-30 06:33N 49°17' W 123°04'0 0.0
2015-Mar-30 05:33N 49°17' W 123°04'0 0.0
2015-Mar-30 04:33N 49°17' W 123°04'0 0.0
2015-Mar-30 03:33N 49°17' W 123°04'0 0.0
2015-Mar-30 02:33N 49°17' W 123°04'0 0.0
2015-Mar-30 01:33N 49°17' W 123°04'0 0.0
2015-Mar-30 00:33N 49°17' W 123°04'0 0.0
2015-Mar-29 23:33N 49°17' W 123°04'0 0.0
2015-Mar-29 22:33N 49°17' W 123°04'0 0.0
2015-Mar-29 21:33N 49°17' W 123°04'0 0.0
2015-Mar-29 20:33N 49°17' W 123°04'0 0.0
2015-Mar-29 19:33N 49°17' W 123°04'0 0.0
2015-Mar-29 18:33N 49°17' W 123°04'0 0.0
2015-Mar-29 17:33N 49°17' W 123°04'0 0.0
2015-Mar-29 16:33N 49°17' W 123°04'0 0.0
2015-Mar-29 15:33N 49°17' W 123°04'0 0.0
2015-Mar-29 14:33N 49°17' W 123°04'0 0.0
2015-Mar-29 13:33N 49°17' W 123°04'0 0.0
2015-Mar-29 12:33N 49°17' W 123°04'0 0.0
2015-Mar-29 11:33N 49°17' W 123°04'0 0.0
2015-Mar-29 10:33N 49°17' W 123°04'0 0.0
2015-Mar-29 09:33N 49°17' W 123°04'0 0.0
2015-Mar-29 08:30N 49°17' W 123°04'0 0.0
2015-Mar-29 07:33N 49°17' W 123°04'0 0.0
2015-Mar-29 06:33N 49°17' W 123°04'0 0.4
2015-Mar-29 05:33N 49°18' W 123°05'6 5.8
2015-Mar-29 04:33N 49°18' W 123°13'1 0.9
2015-Mar-29 03:33N 49°18' W 123°14'0 0.0
2015-Mar-29 02:33N 49°18' W 123°14'0 0.0
2015-Mar-29 01:33N 49°18' W 123°14'0 0.0
2015-Mar-29 00:33N 49°18' W 123°14'0 0.1
2015-Mar-28 23:30N 49°18' W 123°14'0 0.0
2015-Mar-28 22:33N 49°18' W 123°14'0 0.0
2015-Mar-28 21:33N 49°18' W 123°14'0 0.0
2015-Mar-28 20:30N 49°18' W 123°14'0 0.1
2015-Mar-28 19:33N 49°18' W 123°14'0 0.0
2015-Mar-28 18:33N 49°18' W 123°14'0 0.0
2015-Mar-28 17:33N 49°18' W 123°14'0 0.0
2015-Mar-28 16:27N 49°18' W 123°14'0 0.0
2015-Mar-28 15:33N 49°18' W 123°14'0 0.0
2015-Mar-28 14:30N 49°18' W 123°14'0 0.1
2015-Mar-28 13:33N 49°18' W 123°14'0 0.0
2015-Mar-28 12:33N 49°18' W 123°14'0 0.0
2015-Mar-28 11:33N 49°18' W 123°14'0 0.0
2015-Mar-28 10:33N 49°18' W 123°14'0 0.1
2015-Mar-28 09:33N 49°18' W 123°14'0 0.0
2015-Mar-28 08:33N 49°18' W 123°14'0 0.0
2015-Mar-28 07:33N 49°18' W 123°14'0 0.1
2015-Mar-28 06:33N 49°18' W 123°14'0 0.0
2015-Mar-28 05:30N 49°18' W 123°14'0 0.1
2015-Mar-28 04:30N 49°18' W 123°14'0 0.1
2015-Mar-28 03:33N 49°18' W 123°14'0 0.0
2015-Mar-28 02:30N 49°18' W 123°14'0 0.2
2015-Mar-28 01:33N 49°18' W 123°15'0 0.1
2015-Mar-28 00:33N 49°18' W 123°15'0 0.1
2015-Mar-27 23:33N 49°18' W 123°15'0 0.0
2015-Mar-27 22:33N 49°18' W 123°14'  
Track history (hours):
 
Tides and Currents Weather Stations Pressure Air Temp Water Temp Dewpoint Dewpoint Depression Visibility Wind Speed Wind Dir Waves Ship Positions

Mt Champion Express

Last reported at 2015-Apr-06 22:14 UTC. Time now 2015-Apr-18 16:45 UTC.
Position N 48°33' W 126°08'.
Warning: this ship's position is 11 days out of date.

Length 192 m; draft 7 m.

Type: Tanker. MMSI: 636013968.

Date/timePositionNaut miles runAvg speedWind from/ knotsBaromVisibWave heightAir tempDewpointWater temp
2015-Apr-06 22:14N 48°33' W 126°08'811.7
2015-Apr-06 21:31N 48°33' W 125°56'4111.7
2015-Apr-06 18:04N 48°31' W 124°55'612.4
2015-Apr-06 17:33N 48°31' W 124°45'1313.0
2015-Apr-06 16:33N 48°26' W 124°27'1312.7
2015-Apr-06 15:33N 48°21' W 124°09'1312.3
2015-Apr-06 14:30N 48°17' W 123°51'1111.8
2015-Apr-06 13:33N 48°15' W 123°34'9 9.3
2015-Apr-06 12:34N 48°22' W 123°25'8 8.0
2015-Apr-06 11:34N 48°24' W 123°13'10 9.8
2015-Apr-06 10:33N 48°34' W 123°13'9 8.9
2015-Apr-06 09:33N 48°43' W 123°13'10 9.6
2015-Apr-06 08:28N 48°49' W 123°01'1111.7
2015-Apr-06 07:33N 48°56' W 123°13'1110.9
2015-Apr-06 06:33N 49°05' W 123°23'1111.5
2015-Apr-06 05:33N 49°16' W 123°20'9 8.6
2015-Apr-06 04:33N 49°18' W 123°07'2 2.2
2015-Apr-06 03:31N 49°17' W 123°04'0 0.0
2015-Apr-06 02:31N 49°17' W 123°04'0 0.0
2015-Apr-06 01:31N 49°17' W 123°04'0 0.0
2015-Apr-06 00:31N 49°17' W 123°04'0 0.0
2015-Apr-05 23:31N 49°17' W 123°04'0 0.0
2015-Apr-05 22:31N 49°17' W 123°04'0 0.0
2015-Apr-05 21:31N 49°17' W 123°04'0 0.0
2015-Apr-05 20:31N 49°17' W 123°04'0 0.0
2015-Apr-05 19:31N 49°17' W 123°04'0 0.0
2015-Apr-05 18:31N 49°17' W 123°04'0 0.0
2015-Apr-05 17:31N 49°17' W 123°04'0 0.0
2015-Apr-05 16:31N 49°17' W 123°04'0 0.0
2015-Apr-05 15:31N 49°17' W 123°04'0 0.0
2015-Apr-05 14:31N 49°17' W 123°04'0 0.0
2015-Apr-05 13:31N 49°17' W 123°04'0 0.0
2015-Apr-05 12:31N 49°17' W 123°04'0 0.0
2015-Apr-05 11:31N 49°17' W 123°04'0 0.0
2015-Apr-05 10:31N 49°17' W 123°04'0 0.0
2015-Apr-05 09:31N 49°17' W 123°04'0 0.0
2015-Apr-05 08:31N 49°17' W 123°04'0 0.0
2015-Apr-05 07:31N 49°17' W 123°04'0 0.0
2015-Apr-05 06:31N 49°17' W 123°04'0 0.0
2015-Apr-05 05:31N 49°17' W 123°04'0 0.0
2015-Apr-05 04:31N 49°17' W 123°04'0 0.0
2015-Apr-05 03:31N 49°17' W 123°04'0 0.0
2015-Apr-05 02:31N 49°17' W 123°04'0 0.1
2015-Apr-05 01:31N 49°17' W 123°04'0 0.0
2015-Apr-05 00:31N 49°17' W 123°04'0 0.0
2015-Apr-04 23:31N 49°17' W 123°04'0 0.0
2015-Apr-04 22:31N 49°17' W 123°04'0 0.0
2015-Apr-04 21:31N 49°17' W 123°04'0 0.0
2015-Apr-04 20:31N 49°17' W 123°04'0 0.0
2015-Apr-04 19:31N 49°17' W 123°04'0 0.0
2015-Apr-04 18:31N 49°17' W 123°04'0 0.0
2015-Apr-04 17:31N 49°17' W 123°04'0 0.0
2015-Apr-04 16:31N 49°17' W 123°04'0 0.0
2015-Apr-04 15:31N 49°17' W 123°04'0 0.0
2015-Apr-04 14:31N 49°17' W 123°04'0 0.0
2015-Apr-04 13:31N 49°17' W 123°04'0 0.0
2015-Apr-04 12:31N 49°17' W 123°04'0 0.0
2015-Apr-04 11:31N 49°17' W 123°04'0 0.0
2015-Apr-04 10:33N 49°17' W 123°04'0 0.0
2015-Apr-04 09:33N 49°17' W 123°04'0 0.0
2015-Apr-04 08:33N 49°17' W 123°04'0 0.0
2015-Apr-04 07:33N 49°17' W 123°04'0 0.0
2015-Apr-04 06:33N 49°17' W 123°04'0 0.0
2015-Apr-04 05:33N 49°17' W 123°04'0 0.0
2015-Apr-04 04:33N 49°17' W 123°04'0 0.0
2015-Apr-04 03:33N 49°17' W 123°04'0 0.0
2015-Apr-04 02:33N 49°17' W 123°04'0 0.0
2015-Apr-04 01:33N 49°17' W 123°04'0 0.0
2015-Apr-04 00:33N 49°17' W 123°04'0 0.0
2015-Apr-03 23:33N 49°17' W 123°04'0 0.0
2015-Apr-03 22:33N 49°17' W 123°04'0 0.0
2015-Apr-03 21:33N 49°17' W 123°04'0 0.0
2015-Apr-03 20:33N 49°17' W 123°04'0 0.0
2015-Apr-03 19:33N 49°17' W 123°04'0 0.0
2015-Apr-03 18:30N 49°17' W 123°04'0 0.0
2015-Apr-03 17:33N 49°17' W 123°04'0 0.0
2015-Apr-03 16:33N 49°17' W 123°04'0 0.0
2015-Apr-03 15:33N 49°17' W 123°04'0 0.0
2015-Apr-03 14:33N 49°17' W 123°04'0 0.0
2015-Apr-03 13:33N 49°17' W 123°04'0 0.0
2015-Apr-03 12:33N 49°17' W 123°04'0 0.0
2015-Apr-03 11:33N 49°17' W 123°04'0 0.0
2015-Apr-03 10:33N 49°17' W 123°04'0 0.0
2015-Apr-03 09:33N 49°17' W 123°04'0 0.0
2015-Apr-03 08:33N 49°17' W 123°04'0 0.0
2015-Apr-03 07:33N 49°17' W 123°04'0 0.0
2015-Apr-03 06:33N 49°17' W 123°04'0 0.0
2015-Apr-03 05:33N 49°17' W 123°04'0 0.0
2015-Apr-03 04:33N 49°17' W 123°04'0 0.0
2015-Apr-03 03:33N 49°17' W 123°04'0 0.0
2015-Apr-03 02:33N 49°17' W 123°04'0 0.0
2015-Apr-03 01:33N 49°17' W 123°04'0 0.0
2015-Apr-03 00:33N 49°17' W 123°04'0 0.0
2015-Apr-02 23:33N 49°17' W 123°04'0 0.0
2015-Apr-02 22:30N 49°17' W 123°04'0 0.0
2015-Apr-02 21:33N 49°17' W 123°04'0 0.0
2015-Apr-02 20:33N 49°17' W 123°04'0 0.0
2015-Apr-02 19:33N 49°17' W 123°04'0 0.0
2015-Apr-02 18:33N 49°17' W 123°04'0 0.0
2015-Apr-02 17:33N 49°17' W 123°04'0 0.0
2015-Apr-02 16:33N 49°17' W 123°04'0 0.0
2015-Apr-02 15:33N 49°17' W 123°04'0 0.0
2015-Apr-02 14:33N 49°17' W 123°04'0 0.0
2015-Apr-02 13:33N 49°17' W 123°04'0 0.0
2015-Apr-02 12:33N 49°17' W 123°04'0 0.0
2015-Apr-02 11:33N 49°17' W 123°04'0 0.0
2015-Apr-02 10:33N 49°17' W 123°04'0 0.0
2015-Apr-02 09:33N 49°17' W 123°04'0 0.0
2015-Apr-02 08:33N 49°17' W 123°04'0 0.0
2015-Apr-02 07:33N 49°17' W 123°04'0 0.0
2015-Apr-02 06:33N 49°17' W 123°04'0 0.0
2015-Apr-02 05:33N 49°17' W 123°04'0 0.0
2015-Apr-02 04:33N 49°17' W 123°04'0 0.0
2015-Apr-02 03:33N 49°17' W 123°04'0 0.0
2015-Apr-02 02:33N 49°17' W 123°04'0 0.0
2015-Apr-02 01:33N 49°17' W 123°04'0 0.0
2015-Apr-02 00:33N 49°17' W 123°04'0 0.0
2015-Apr-01 23:33N 49°17' W 123°04'0 0.0
2015-Apr-01 22:33N 49°17' W 123°04'1 1.2
2015-Apr-01 21:33N 49°18' W 123°06'6 5.2
2015-Apr-01 20:30N 49°18' W 123°14'0 0.0
2015-Apr-01 19:33N 49°18' W 123°14'0 0.2
2015-Apr-01 18:33N 49°18' W 123°14'0 0.1
2015-Apr-01 17:30N 49°18' W 123°14'0 0.1
2015-Apr-01 16:33N 49°18' W 123°14'0 0.0
2015-Apr-01 15:33N 49°18' W 123°14'0 0.0
2015-Apr-01 14:33N 49°18' W 123°14'0 0.0
2015-Apr-01 13:33N 49°18' W 123°14'0 0.0
2015-Apr-01 12:33N 49°18' W 123°14'0 0.0
2015-Apr-01 11:33N 49°18' W 123°14'0 0.1
2015-Apr-01 10:33N 49°18' W 123°14'0 0.0
2015-Apr-01 09:33N 49°18' W 123°14'0 0.0
2015-Apr-01 08:30N 49°18' W 123°14'0 0.1
2015-Apr-01 07:33N 49°18' W 123°14'0 0.0
2015-Apr-01 06:33N 49°18' W 123°14'0 0.0
2015-Apr-01 05:33N 49°18' W 123°14'0 0.0
2015-Apr-01 04:33N 49°18' W 123°14'0 0.0
2015-Apr-01 03:33N 49°18' W 123°14'0 0.0
2015-Apr-01 02:33N 49°18' W 123°14'0 0.0
2015-Apr-01 01:33N 49°18' W 123°14'0 0.1
2015-Apr-01 00:33N 49°18' W 123°14'0 0.1
2015-Mar-31 23:33N 49°18' W 123°14'1 1.0
2015-Mar-31 22:33N 49°18' W 123°13'6 5.7
2015-Mar-31 21:33N 49°17' W 123°04'0 0.1
2015-Mar-31 20:33N 49°17' W 123°04'0 0.0
2015-Mar-31 19:33N 49°17' W 123°04'0 0.0
2015-Mar-31 18:33N 49°17' W 123°04'0 0.0
2015-Mar-31 17:33N 49°17' W 123°04'0 0.0
2015-Mar-31 16:33N 49°17' W 123°04'0 0.0
2015-Mar-31 15:33N 49°17' W 123°04'0 0.0
2015-Mar-31 14:33N 49°17' W 123°04'0 0.0
2015-Mar-31 13:33N 49°17' W 123°04'0 0.0
2015-Mar-31 12:33N 49°17' W 123°04'0 0.0
2015-Mar-31 11:33N 49°17' W 123°04'0 0.0
2015-Mar-31 10:33N 49°17' W 123°04'0 0.0
2015-Mar-31 09:33N 49°17' W 123°04'0 0.0
2015-Mar-31 08:33N 49°17' W 123°04'0 0.0
2015-Mar-31 07:33N 49°17' W 123°04'0 0.0
2015-Mar-31 06:33N 49°17' W 123°04'0 0.0
2015-Mar-31 05:33N 49°17' W 123°04'0 0.0
2015-Mar-31 04:33N 49°17' W 123°04'0 0.0
2015-Mar-31 03:33N 49°17' W 123°04'0 0.0
2015-Mar-31 02:33N 49°17' W 123°04'0 0.0
2015-Mar-31 01:33N 49°17' W 123°04'0 0.0
2015-Mar-31 00:33N 49°17' W 123°04'0 0.0
2015-Mar-30 23:33N 49°17' W 123°04'0 0.0
2015-Mar-30 22:33N 49°17' W 123°04'0 0.0
2015-Mar-30 21:33N 49°17' W 123°04'0 0.0
2015-Mar-30 20:33N 49°17' W 123°04'0 0.0
2015-Mar-30 19:30N 49°17' W 123°04'0 0.0
2015-Mar-30 18:33N 49°17' W 123°04'0 0.0
2015-Mar-30 17:33N 49°17' W 123°04'0 0.0
2015-Mar-30 16:33N 49°17' W 123°04'0 0.0
2015-Mar-30 15:33N 49°17' W 123°04'0 0.0
2015-Mar-30 14:33N 49°17' W 123°04'0 0.0
2015-Mar-30 13:33N 49°17' W 123°04'0 0.0
2015-Mar-30 12:33N 49°17' W 123°04'0 0.0
2015-Mar-30 11:33N 49°17' W 123°04'0 0.0
2015-Mar-30 10:33N 49°17' W 123°04'0 0.0
2015-Mar-30 09:33N 49°17' W 123°04'0 0.0
2015-Mar-30 08:33N 49°17' W 123°04'0 0.0
2015-Mar-30 07:30N 49°17' W 123°04'0 0.0
2015-Mar-30 06:33N 49°17' W 123°04'0 0.0
2015-Mar-30 05:33N 49°17' W 123°04'0 0.0
2015-Mar-30 04:33N 49°17' W 123°04'0 0.0
2015-Mar-30 03:33N 49°17' W 123°04'0 0.0
2015-Mar-30 02:33N 49°17' W 123°04'0 0.0
2015-Mar-30 01:33N 49°17' W 123°04'0 0.0
2015-Mar-30 00:33N 49°17' W 123°04'0 0.0
2015-Mar-29 23:33N 49°17' W 123°04'0 0.0
2015-Mar-29 22:33N 49°17' W 123°04'0 0.0
2015-Mar-29 21:33N 49°17' W 123°04'0 0.0
2015-Mar-29 20:33N 49°17' W 123°04'0 0.0
2015-Mar-29 19:33N 49°17' W 123°04'0 0.0
2015-Mar-29 18:33N 49°17' W 123°04'0 0.0
2015-Mar-29 17:33N 49°17' W 123°04'0 0.0
2015-Mar-29 16:33N 49°17' W 123°04'0 0.0
2015-Mar-29 15:33N 49°17' W 123°04'0 0.0
2015-Mar-29 14:33N 49°17' W 123°04'0 0.0
2015-Mar-29 13:33N 49°17' W 123°04'0 0.0
2015-Mar-29 12:33N 49°17' W 123°04'0 0.0
2015-Mar-29 11:33N 49°17' W 123°04'0 0.0
2015-Mar-29 10:33N 49°17' W 123°04'0 0.0
2015-Mar-29 09:33N 49°17' W 123°04'0 0.0
2015-Mar-29 08:30N 49°17' W 123°04'0 0.0
2015-Mar-29 07:33N 49°17' W 123°04'0 0.0
2015-Mar-29 06:33N 49°17' W 123°04'0 0.4
2015-Mar-29 05:33N 49°18' W 123°05'6 5.8
2015-Mar-29 04:33N 49°18' W 123°13'1 0.9
2015-Mar-29 03:33N 49°18' W 123°14'0 0.0
2015-Mar-29 02:33N 49°18' W 123°14'0 0.0
2015-Mar-29 01:33N 49°18' W 123°14'0 0.0
2015-Mar-29 00:33N 49°18' W 123°14'0 0.1
2015-Mar-28 23:30N 49°18' W 123°14'0 0.0
2015-Mar-28 22:33N 49°18' W 123°14'0 0.0
2015-Mar-28 21:33N 49°18' W 123°14'0 0.0
2015-Mar-28 20:30N 49°18' W 123°14'0 0.1
2015-Mar-28 19:33N 49°18' W 123°14'0 0.0
2015-Mar-28 18:33N 49°18' W 123°14'0 0.0
2015-Mar-28 17:33N 49°18' W 123°14'0 0.0
2015-Mar-28 16:27N 49°18' W 123°14'0 0.0
2015-Mar-28 15:33N 49°18' W 123°14'0 0.0
2015-Mar-28 14:30N 49°18' W 123°14'0 0.1
2015-Mar-28 13:33N 49°18' W 123°14'0 0.0
2015-Mar-28 12:33N 49°18' W 123°14'0 0.0
2015-Mar-28 11:33N 49°18' W 123°14'0 0.0
2015-Mar-28 10:33N 49°18' W 123°14'0 0.1
2015-Mar-28 09:33N 49°18' W 123°14'0 0.0
2015-Mar-28 08:33N 49°18' W 123°14'0 0.0
2015-Mar-28 07:33N 49°18' W 123°14'0 0.1
2015-Mar-28 06:33N 49°18' W 123°14'0 0.0
2015-Mar-28 05:30N 49°18' W 123°14'0 0.1
2015-Mar-28 04:30N 49°18' W 123°14'0 0.1
2015-Mar-28 03:33N 49°18' W 123°14'0 0.0
2015-Mar-28 02:30N 49°18' W 123°14'0 0.2
2015-Mar-28 01:33N 49°18' W 123°15'0 0.1
2015-Mar-28 00:33N 49°18' W 123°15'0 0.1
2015-Mar-27 23:33N 49°18' W 123°15'0 0.0
2015-Mar-27 22:33N 49°18' W 123°14'  

Dump ship's entire track history